Time;durP1;ratioP1;P1;durP2;ratioP2;P2;SDS_P1;SDS_P2;PMS_P1;PMS_P2;Temp;Humidity;BMP_temperature;BMP_pressure;BME280_temperature;BME280_humidity;BME280_pressure;Samples;Min_cycle;Max_cycle;Signal;HPM_P1;HPM_P2
2022/11/26 00:01:57;;;;;;;23.07;12.03;;;;;;;-2.64;85.16;96256.94;1829304;78;21540;-72
2022/11/26 00:04:24;;;;;;;48.53;23.63;;;;;;;-2.57;85.30;96256.80;1829161;78;20982;-72
2022/11/26 00:06:51;;;;;;;42.33;22.00;;;;;;;-2.57;84.17;96256.80;1829341;78;21025;-72
2022/11/26 00:09:21;;;;;;;38.43;18.37;;;;;;;-2.61;84.17;96264.81;1829421;78;20962;-72
2022/11/26 00:11:48;;;;;;;25.30;13.53;;;;;;;-2.50;85.36;96265.25;1829394;78;21037;-72
2022/11/26 00:14:16;;;;;;;15.83;8.60;;;;;;;-2.28;85.51;96266.16;1829447;78;21002;-71
2022/11/26 00:16:43;;;;;;;18.47;9.63;;;;;;;-2.18;85.19;96263.13;1829195;78;21044;-72
2022/11/26 00:19:10;;;;;;;19.70;10.10;;;;;;;-2.07;85.35;96264.44;1829343;78;21005;-72
2022/11/26 00:21:40;;;;;;;33.47;15.37;;;;;;;-1.92;85.18;96259.42;1829370;78;20990;-73
2022/11/26 00:24:26;;;;;;;26.73;14.63;;;;;;;-1.85;84.86;96262.31;1799556;78;21452;-73
2022/11/26 00:26:56;;;;;;;42.27;20.70;;;;;;;-1.69;84.84;96266.37;1784914;78;21013;-72
2022/11/26 00:29:23;;;;;;;42.53;22.20;;;;;;;-1.63;84.03;96264.05;1829150;78;20993;-72
2022/11/26 00:31:50;;;;;;;39.90;19.73;;;;;;;-1.57;84.43;96260.80;1829211;78;21025;-72
2022/11/26 00:34:17;;;;;;;40.37;20.90;;;;;;;-1.57;83.31;96257.80;1829281;78;21515;-73
2022/11/26 00:36:44;;;;;;;59.43;29.43;;;;;;;-1.62;83.50;96268.80;1821409;78;21057;-72
2022/11/26 00:39:21;;;;;;;60.87;29.27;;;;;;;-1.61;84.00;96273.17;1818739;79;21041;-71
2022/11/26 00:41:50;;;;;;;42.53;22.47;;;;;;;-1.52;84.13;96275.67;1819003;79;21484;-71
2022/11/26 00:44:20;;;;;;;53.20;23.40;;;;;;;-1.44;83.91;96269.50;1818919;79;21096;-73
2022/11/26 00:46:48;;;;;;;58.87;24.67;;;;;;;-1.42;83.40;96266.98;1818830;79;21006;-72
2022/11/26 00:49:16;;;;;;;51.03;24.13;;;;;;;-1.41;83.59;96266.14;1818850;79;21018;-72
2022/11/26 00:51:45;;;;;;;42.97;20.03;;;;;;;-1.36;83.34;96264.61;1818819;79;20951;-72
2022/11/26 00:54:16;;;;;;;55.80;24.97;;;;;;;-1.42;82.96;96267.86;1818869;79;21049;-73
2022/11/26 00:56:42;;;;;;;54.50;24.80;;;;;;;-1.35;83.59;96264.69;1818885;79;20990;-72
2022/11/26 00:59:13;;;;;;;46.57;21.33;;;;;;;-1.32;83.31;96258.73;1818749;79;20966;-72
2022/11/26 01:01:40;;;;;;;54.43;24.60;;;;;;;-1.34;83.08;96266.43;1818806;79;21066;-71
2022/11/26 01:04:07;;;;;;;48.93;23.07;;;;;;;-1.36;83.23;96266.81;1818953;79;21125;-71
2022/11/26 01:06:38;;;;;;;56.73;25.27;;;;;;;-1.26;83.98;96265.46;1818891;79;21002;-70
2022/11/26 01:09:07;;;;;;;53.20;23.77;;;;;;;-1.15;83.86;96274.91;1818419;79;21504;-70
2022/11/26 01:11:33;;;;;;;54.20;23.67;;;;;;;-1.17;83.94;96275.27;1818852;79;21007;-70
2022/11/26 01:14:00;;;;;;;49.37;22.80;;;;;;;-1.09;84.14;96274.70;1818789;79;21053;-71
2022/11/26 01:16:31;;;;;;;45.30;20.50;;;;;;;-0.98;84.35;96273.83;1818711;79;21047;-72
2022/11/26 01:19:01;;;;;;;30.17;16.23;;;;;;;-0.93;84.04;96273.58;1793047;79;21065;-72
2022/11/26 01:21:29;;;;;;;30.93;17.60;;;;;;;-0.95;83.47;96271.77;1819092;79;21009;-72
2022/11/26 01:23:56;;;;;;;32.40;18.27;;;;;;;-0.90;83.74;96267.63;1818874;79;21017;-72
2022/11/26 01:26:26;;;;;;;29.40;16.17;;;;;;;-0.83;83.95;96272.22;1818779;79;21117;-72
2022/11/26 01:28:54;;;;;;;16.60;9.37;;;;;;;-0.85;83.30;96267.38;1818990;79;20987;-71
2022/11/26 01:31:24;;;;;;;22.83;11.90;;;;;;;-0.85;83.13;96279.46;1818668;79;20998;-72
2022/11/26 01:33:52;;;;;;;30.30;15.03;;;;;;;-0.94;83.05;96274.81;1818714;79;21005;-72
2022/11/26 01:36:32;;;;;;;28.47;15.67;;;;;;;-1.01;83.70;96277.58;1823580;78;21460;-72
2022/11/26 01:39:18;;;;;;;28.83;15.73;;;;;;;-1.02;84.02;96282.30;1829198;78;21491;-72
2022/11/26 01:42:08;;;;;;;26.40;15.10;;;;;;;-0.99;83.96;96278.94;1829183;78;21029;-72
2022/11/26 01:44:36;;;;;;;23.07;14.70;;;;;;;-1.06;83.96;96279.11;1829210;78;21507;-72
2022/11/26 01:47:23;;;;;;;24.63;13.47;;;;;;;-1.03;84.28;96280.55;1829202;78;21502;-72
2022/11/26 01:50:29;;;;;;;26.90;16.37;;;;;;;-1.05;84.07;96277.02;1829248;78;21045;-72
2022/11/26 01:53:18;;;;;;;25.27;15.73;;;;;;;-0.98;84.27;96278.14;1829410;78;21495;-72
2022/11/26 01:55:52;;;;;;;22.97;14.30;;;;;;;-0.91;84.54;96280.09;1827837;78;21057;-72
2022/11/26 01:58:42;;;;;;;27.53;15.00;;;;;;;-0.92;83.88;96284.41;1828299;78;20983;-72
2022/11/26 02:01:09;;;;;;;26.20;14.93;;;;;;;-0.97;83.82;96278.17;1829077;78;21014;-71
2022/11/26 02:03:40;;;;;;;21.47;11.87;;;;;;;-0.87;84.70;96284.58;1829307;78;21460;-72
2022/11/26 02:06:12;;;;;;;22.33;11.93;;;;;;;-0.90;83.97;96285.34;1828944;78;21492;-72
2022/11/26 02:08:40;;;;;;;24.13;14.67;;;;;;;-0.92;84.73;96282.23;1828872;78;21528;-72
2022/11/26 02:11:17;;;;;;;25.60;15.60;;;;;;;-0.93;84.56;96286.95;1829202;78;20998;-72
2022/11/26 02:13:47;;;;;;;27.17;15.10;;;;;;;-0.97;85.01;96285.94;1825956;78;21504;-72
2022/11/26 02:16:43;;;;;;;27.03;15.93;;;;;;;-0.88;85.11;96282.83;1828957;78;21038;-72
2022/11/26 02:19:41;;;;;;;26.60;13.80;;;;;;;-0.88;84.47;96285.41;1829364;78;21037;-72
2022/11/26 02:22:28;;;;;;;24.90;13.77;;;;;;;-0.80;84.93;96279.21;1829431;78;20978;-72
2022/11/26 02:25:47;;;;;;;27.90;15.30;;;;;;;-0.80;85.17;96278.80;1828163;78;21010;-72
2022/11/26 02:28:25;;;;;;;26.17;14.27;;;;;;;-0.83;84.92;96276.09;1829324;78;21037;-72
2022/11/26 02:31:09;;;;;;;27.80;14.50;;;;;;;-0.90;84.82;96277.58;1829134;78;21010;-72
2022/11/26 02:33:49;;;;;;;25.55;14.85;;;;;;;-0.88;85.46;96279.81;1829454;78;21527;-71
2022/11/26 02:36:27;;;;;;;27.27;15.30;;;;;;;-0.77;85.83;96287.97;1830105;78;21026;-71
2022/11/26 02:38:53;;;;;;;28.17;14.80;;;;;;;-0.64;85.78;96277.62;1830958;78;21488;-72
2022/11/26 02:41:20;;;;;;;26.60;14.07;;;;;;;-0.61;85.27;96271.24;1832113;78;21010;-72
2022/11/26 02:43:47;;;;;;;20.73;12.97;;;;;;;-0.56;85.02;96280.06;1832338;78;21009;-71
2022/11/26 02:46:17;;;;;;;15.60;9.70;;;;;;;-0.53;85.04;96282.78;1831975;78;21045;-71
2022/11/26 02:48:48;;;;;;;15.00;9.67;;;;;;;-0.49;84.88;96275.56;1832291;78;21064;-71
2022/11/26 02:51:22;;;;;;;14.60;9.07;;;;;;;-0.52;84.24;96284.53;1832305;78;21017;-71
2022/11/26 02:53:50;;;;;;;;;;;;;;;-0.47;84.71;96287.30;1835051;78;20993;-71
2022/11/26 02:56:24;;;;;;;13.43;7.23;;;;;;;-0.41;84.61;96284.02;1832265;78;20094;-71
2022/11/26 02:58:53;;;;;;;14.37;7.80;;;;;;;-0.44;84.28;96298.64;1832447;78;21029;-71
2022/11/26 03:01:37;;;;;;;13.60;8.50;;;;;;;-0.51;83.87;96294.06;1832210;78;21013;-71
2022/11/26 03:04:14;;;;;;;13.32;7.28;;;;;;;-0.57;84.30;96304.23;1832462;78;21017;-71
2022/11/26 03:06:42;;;;;;;14.90;7.70;;;;;;;-0.53;84.75;96298.73;1831912;78;20997;-71
2022/11/26 03:09:09;;;;;;;16.03;9.77;;;;;;;-0.58;84.61;96290.81;1832097;78;21049;-71
2022/11/26 03:11:36;;;;;;;18.60;11.30;;;;;;;-0.59;84.78;96295.93;1832298;78;21005;-71
2022/11/26 03:14:03;;;;;;;16.93;11.43;;;;;;;-0.63;84.86;96305.70;1832330;78;21033;-71
2022/11/26 03:16:29;;;;;;;17.50;11.17;;;;;;;-0.67;85.07;96296.95;1760362;81;21461;-71
2022/11/26 03:18:56;;;;;;;20.77;12.63;;;;;;;-0.70;84.60;96299.44;1770801;81;21025;-71
2022/11/26 03:21:23;;;;;;;20.70;11.23;;;;;;;-0.66;85.21;96298.70;1793221;80;21018;-71
2022/11/26 03:23:49;;;;;;;18.53;12.77;;;;;;;-0.60;85.66;96297.64;1771006;81;21010;-71
2022/11/26 03:26:16;;;;;;;18.77;11.70;;;;;;;-0.51;85.77;96296.66;1793333;80;21543;-71
2022/11/26 03:28:43;;;;;;;20.23;11.70;;;;;;;-0.48;85.60;96300.67;1770905;81;21014;-71
2022/11/26 03:31:09;;;;;;;19.83;11.80;;;;;;;-0.38;85.65;96305.74;1793095;80;20962;-71
2022/11/26 03:33:36;;;;;;;19.73;13.30;;;;;;;-0.30;85.38;96312.52;1770986;81;21461;-71
2022/11/26 03:36:03;;;;;;;16.13;9.67;;;;;;;-0.26;85.29;96309.19;1793559;79;20967;-71
2022/11/26 03:38:29;;;;;;;18.27;11.57;;;;;;;-0.32;84.76;96307.27;1776515;81;21026;-71
2022/11/26 03:40:58;;;;;;;22.43;13.57;;;;;;;-0.29;85.11;96308.66;1796302;80;20974;-71
2022/11/26 03:43:26;;;;;;;20.13;13.10;;;;;;;-0.26;85.24;96310.48;1776468;81;21013;-71
2022/11/26 03:45:52;;;;;;;17.93;12.20;;;;;;;-0.26;84.89;96313.95;1796112;80;21025;-71
2022/11/26 03:48:19;;;;;;;18.07;11.90;;;;;;;-0.28;84.85;96313.43;1776312;81;21033;-71
2022/11/26 03:50:46;;;;;;;21.03;11.73;;;;;;;-0.27;84.83;96322.99;1796356;79;21503;-71
2022/11/26 03:53:12;;;;;;;19.93;12.53;;;;;;;-0.32;84.98;96317.64;1776354;81;20998;-71
2022/11/26 03:55:39;;;;;;;18.13;11.50;;;;;;;-0.28;85.33;96326.39;1796285;79;21049;-71
2022/11/26 03:58:05;;;;;;;22.20;11.90;;;;;;;-0.23;85.00;96320.56;1776352;81;20967;-71
2022/11/26 04:00:32;;;;;;;28.30;15.57;;;;;;;-0.28;85.22;96324.71;1796357;80;21483;-71
2022/11/26 04:02:58;;;;;;;27.70;14.50;;;;;;;-0.32;84.59;96325.42;1776345;81;21030;-71
2022/11/26 04:05:25;;;;;;;31.43;16.03;;;;;;;-0.42;85.00;96329.81;1796236;80;21045;-71
2022/11/26 04:07:52;;;;;;;24.23;14.10;;;;;;;-0.47;85.42;96327.05;1776351;81;21544;-71
2022/11/26 04:10:19;;;;;;;20.60;12.33;;;;;;;-0.49;85.44;96331.72;1796440;80;21042;-71
2022/11/26 04:12:45;;;;;;;20.87;12.60;;;;;;;-0.46;85.94;96327.93;1776364;81;21002;-71
2022/11/26 04:15:12;;;;;;;20.57;12.43;;;;;;;-0.37;86.01;96326.09;1796272;79;20982;-71
2022/11/26 04:17:39;;;;;;;43.10;24.97;;;;;;;-0.26;86.05;96319.55;1776175;81;21094;-71
2022/11/26 04:20:07;;;;;;;43.63;23.47;;;;;;;-0.26;85.28;96324.74;1796259;80;21504;-71
2022/11/26 04:22:34;;;;;;;37.20;21.40;;;;;;;-0.22;85.64;96323.61;1776235;81;21061;-71
2022/11/26 04:25:00;;;;;;;38.90;22.87;;;;;;;-0.17;85.83;96327.66;1796304;80;21370;-71
2022/11/26 04:27:27;;;;;;;32.93;18.63;;;;;;;-0.13;85.89;96328.22;1776528;81;20982;-71
2022/11/26 04:29:54;;;;;;;30.00;16.83;;;;;;;-0.08;85.82;96329.67;1796264;79;21453;-71
2022/11/26 04:32:20;;;;;;;31.97;18.03;;;;;;;-0.06;85.57;96335.38;1776224;81;21468;-71
2022/11/26 04:34:47;;;;;;;28.93;16.90;;;;;;;-0.07;85.22;96342.71;1796220;80;21014;-71
2022/11/26 04:37:13;;;;;;;29.23;16.43;;;;;;;-0.02;85.71;96338.98;1759137;81;21576;-71
2022/11/26 04:39:40;;;;;;;23.77;13.67;;;;;;;-0.02;85.17;96342.45;1759793;81;21014;-71
2022/11/26 04:42:07;;;;;;;17.60;10.30;;;;;;;0.03;85.42;96338.72;1787744;80;21006;-72
2022/11/26 04:44:33;;;;;;;19.90;13.33;;;;;;;0.05;85.26;96340.96;1760063;81;21074;-72
2022/11/26 04:47:00;;;;;;;24.97;16.00;;;;;;;-0.02;84.74;96337.27;1787522;80;20982;-71
2022/11/26 04:49:26;;;;;;;34.47;19.57;;;;;;;-0.13;84.50;96336.42;1760121;81;21086;-71
2022/11/26 04:51:53;;;;;;;40.73;24.53;;;;;;;-0.14;85.24;96345.92;1787673;80;20986;-71
2022/11/26 04:54:19;;;;;;;49.00;29.90;;;;;;;-0.12;85.37;96341.67;1725376;82;21029;-71
2022/11/26 04:56:46;;;;;;;66.63;37.70;;;;;;;-0.08;85.68;96343.52;1759991;81;21466;-71
2022/11/26 04:59:12;;;;;;;49.97;31.23;;;;;;;-0.06;85.31;96348.36;1787650;80;21018;-71
2022/11/26 05:01:39;;;;;;;36.80;21.43;;;;;;;-0.05;85.41;96350.52;1759948;81;21027;-70
2022/11/26 05:04:06;;;;;;;48.27;27.53;;;;;;;-0.07;84.93;96352.22;1787562;80;21042;-71
2022/11/26 05:06:32;;;;;;;49.97;28.83;;;;;;;-0.12;85.42;96354.64;1760043;81;21011;-71
2022/11/26 05:08:59;;;;;;;33.93;19.30;;;;;;;-0.11;85.62;96351.20;1787676;80;21133;-71
2022/11/26 05:11:26;;;;;;;28.70;17.93;;;;;;;-0.03;85.82;96348.45;1760051;81;21015;-71
2022/11/26 05:13:52;;;;;;;28.80;16.77;;;;;;;-0.02;85.83;96346.34;1787651;80;21512;-71
2022/11/26 05:16:19;;;;;;;23.77;14.60;;;;;;;-0.03;85.81;96353.64;1759952;81;20998;-70
2022/11/26 05:18:46;;;;;;;20.10;13.13;;;;;;;0.05;86.12;96353.94;1787483;80;21018;-71
2022/11/26 05:21:12;;;;;;;31.00;20.67;;;;;;;0.04;85.98;96361.66;1760135;81;21023;-72
2022/11/26 05:23:39;;;;;;;29.97;19.53;;;;;;;0.00;86.06;96354.19;1787413;80;20995;-71
2022/11/26 05:26:06;;;;;;;36.20;21.57;;;;;;;0.01;86.11;96362.43;1755083;81;21002;-72
2022/11/26 05:28:32;;;;;;;34.53;21.73;;;;;;;-0.02;86.08;96359.73;1760281;81;21579;-72
2022/11/26 05:31:01;;;;;;;33.17;20.30;;;;;;;0.00;85.84;96356.78;1787794;80;21033;-72
2022/11/26 05:33:29;;;;;;;36.00;20.97;;;;;;;-0.02;85.57;96359.31;1759835;81;21536;-72
2022/11/26 05:35:55;;;;;;;27.67;15.73;;;;;;;-0.01;85.95;96352.41;1787610;80;20998;-72
2022/11/26 05:38:22;;;;;;;39.73;22.53;;;;;;;0.02;85.80;96356.40;1759793;81;21050;-72
2022/11/26 05:40:50;;;;;;;28.67;17.63;;;;;;;0.03;86.13;96361.20;1787493;80;20987;-72
2022/11/26 05:43:16;;;;;;;28.93;15.37;;;;;;;0.06;86.16;96361.30;1759858;81;21473;-72
2022/11/26 05:45:43;;;;;;;22.00;13.27;;;;;;;0.08;86.19;96366.13;1787614;80;20978;-72
2022/11/26 05:48:10;;;;;;;27.93;16.40;;;;;;;0.06;85.53;96368.66;1759858;81;21052;-72
2022/11/26 05:50:37;;;;;;;27.47;15.90;;;;;;;-0.01;85.96;96366.67;1787602;80;20970;-72
2022/11/26 05:53:04;;;;;;;24.40;15.17;;;;;;;0.01;86.45;96370.63;1759918;81;21571;-72
2022/11/26 05:55:31;;;;;;;25.67;14.97;;;;;;;0.07;86.73;96374.30;1787671;80;21919;-72
2022/11/26 05:57:57;;;;;;;25.20;13.73;;;;;;;0.05;86.26;96379.87;1759973;81;21053;-72
2022/11/26 06:00:24;;;;;;;46.47;21.60;;;;;;;0.05;86.51;96385.06;1787626;80;20994;-72
2022/11/26 06:02:51;;;;;;;24.37;14.73;;;;;;;0.18;86.82;96385.07;1759773;81;21484;-72
2022/11/26 06:05:18;;;;;;;30.97;16.97;;;;;;;0.24;86.26;96385.27;1787829;80;21469;-72
2022/11/26 06:07:45;;;;;;;60.23;32.40;;;;;;;0.32;86.47;96397.20;1760009;81;21493;-71
2022/11/26 06:10:13;;;;;;;44.77;24.23;;;;;;;0.42;86.65;96396.67;1787359;80;21491;-71
2022/11/26 06:12:39;;;;;;;53.33;29.47;;;;;;;0.48;86.23;96402.09;1759871;81;21023;-71
2022/11/26 06:15:07;;;;;;;42.27;24.07;;;;;;;0.42;85.79;96407.94;1787606;80;21021;-72
2022/11/26 06:17:33;;;;;;;30.73;17.73;;;;;;;0.40;85.81;96405.73;1759982;81;21492;-71
2022/11/26 06:19:59;;;;;;;36.07;21.13;;;;;;;0.34;85.46;96401.61;1787707;80;21000;-72
2022/11/26 06:22:26;;;;;;;36.43;19.23;;;;;;;0.33;85.83;96411.55;1755414;82;21014;-71
2022/11/26 06:24:53;;;;;;;31.23;17.97;;;;;;;0.31;85.80;96417.09;1760205;81;20975;-71
2022/11/26 06:27:19;;;;;;;37.33;23.53;;;;;;;0.24;85.57;96406.03;1787790;80;21049;-71
2022/11/26 06:29:46;;;;;;;45.57;27.10;;;;;;;0.17;85.69;96410.53;1756618;82;21035;-71
2022/11/26 06:32:12;;;;;;;54.83;30.67;;;;;;;0.16;86.30;96418.73;1760062;81;21062;-71
2022/11/26 06:34:39;;;;;;;51.90;31.00;;;;;;;0.26;86.81;96417.34;1787799;80;21002;-71
2022/11/26 06:37:05;;;;;;;47.60;27.37;;;;;;;0.35;86.85;96420.27;1759748;81;21045;-71
2022/11/26 06:39:32;;;;;;;34.20;21.13;;;;;;;0.46;86.86;96420.63;1787816;80;20967;-71
2022/11/26 06:41:58;;;;;;;36.23;20.57;;;;;;;0.49;86.58;96426.33;1760040;81;21015;-70
2022/11/26 06:44:25;;;;;;;34.47;20.67;;;;;;;0.51;86.77;96425.98;1787815;80;21045;-71
2022/11/26 06:46:52;;;;;;;39.97;24.67;;;;;;;0.57;86.72;96431.36;1760018;81;21058;-71
2022/11/26 06:49:18;;;;;;;40.47;25.63;;;;;;;0.61;86.71;96438.02;1787742;80;20995;-71
2022/11/26 06:51:44;;;;;;;63.27;36.33;;;;;;;0.69;86.80;96431.77;1760231;81;21015;-71
2022/11/26 06:54:11;;;;;;;52.73;32.87;;;;;;;0.71;86.07;96431.41;1787818;80;21006;-71
2022/11/26 06:56:38;;;;;;;89.30;48.47;;;;;;;0.72;86.18;96442.67;1760258;81;21473;-71
2022/11/26 06:59:04;;;;;;;55.27;30.40;;;;;;;0.74;86.12;96447.52;1787787;80;21061;-71
2022/11/26 07:01:31;;;;;;;44.90;26.20;;;;;;;0.73;85.60;96446.64;1760226;81;21026;-71
2022/11/26 07:03:58;;;;;;;49.37;27.20;;;;;;;0.67;85.24;96462.00;1787629;80;20954;-71
2022/11/26 07:06:28;;;;;;;35.93;20.10;;;;;;;0.63;85.61;96458.81;1760115;81;21015;-71
2022/11/26 07:08:57;;;;;;;50.10;28.83;;;;;;;0.67;85.65;96460.70;1787015;80;21074;-71
2022/11/26 07:11:26;;;;;;;46.37;26.50;;;;;;;0.67;85.70;96458.52;1760053;81;21010;-71
2022/11/26 07:13:53;;;;;;;117.73;55.37;;;;;;;0.74;85.89;96469.59;1787702;80;21030;-71
2022/11/26 07:16:20;;;;;;;50.50;31.43;;;;;;;0.77;85.34;96464.48;1755036;82;21026;-71
2022/11/26 07:18:52;;;;;;;43.00;27.60;;;;;;;0.76;85.41;96471.83;1759937;81;20983;-71
2022/11/26 07:21:19;;;;;;;55.17;37.17;;;;;;;0.75;85.48;96468.74;1787690;80;21580;-71
2022/11/26 07:23:48;;;;;;;44.43;27.80;;;;;;;0.68;85.97;96474.17;1760198;81;21472;-72
2022/11/26 07:26:18;;;;;;;46.40;31.03;;;;;;;0.70;85.99;96478.09;1787609;80;21029;-72
2022/11/26 07:28:48;;;;;;;59.90;38.20;;;;;;;0.66;86.14;96477.13;1760115;81;21063;-72
2022/11/26 07:31:21;;;;;;;59.43;37.27;;;;;;;0.66;86.03;96485.34;1787704;80;21006;-72
2022/11/26 07:33:48;;;;;;;69.53;42.17;;;;;;;0.63;85.90;96484.40;1760060;81;21002;-72
2022/11/26 07:36:28;;;;;;;75.27;47.40;;;;;;;0.60;86.31;96491.19;1787658;80;21019;-71
2022/11/26 07:38:58;;;;;;;73.67;43.47;;;;;;;0.69;86.74;96498.42;1759905;81;21027;-72
2022/11/26 07:41:26;;;;;;;71.30;44.27;;;;;;;0.71;86.50;96495.05;1787744;80;21006;-72
2022/11/26 07:43:52;;;;;;;68.93;40.50;;;;;;;0.75;86.34;96491.70;1760224;81;21007;-72
2022/11/26 07:46:22;;;;;;;55.83;35.33;;;;;;;0.82;86.51;96491.08;1787648;80;21074;-71
2022/11/26 07:48:49;;;;;;;51.33;33.17;;;;;;;0.88;86.67;96492.98;1760089;81;20991;-72
2022/11/26 07:51:30;;;;;;;59.30;35.37;;;;;;;0.95;86.78;96494.96;1787626;80;21477;-71
2022/11/26 07:53:59;;;;;;;42.30;27.67;;;;;;;1.04;87.26;96500.89;1760053;81;21025;-71
2022/11/26 07:56:26;;;;;;;72.43;36.40;;;;;;;1.21;86.88;96496.22;1782692;80;20998;-69
2022/11/26 07:58:54;;;;;;;63.23;34.50;;;;;;;1.30;86.50;96496.09;1760268;81;21535;-70
2022/11/26 08:01:26;;;;;;;37.43;23.23;;;;;;;1.33;86.12;96484.03;1787537;80;21015;-70
2022/11/26 08:03:52;;;;;;;47.20;26.67;;;;;;;1.32;85.87;96492.26;1760116;81;21003;-70
2022/11/26 08:06:23;;;;;;;60.00;30.87;;;;;;;1.37;86.39;96488.51;1787556;80;21093;-70
2022/11/26 08:08:50;;;;;;;58.47;34.27;;;;;;;1.41;86.11;96486.05;1760121;81;21524;-70
2022/11/26 08:11:23;;;;;;;69.50;42.20;;;;;;;1.47;85.65;96489.25;1787711;80;21007;-70
2022/11/26 08:14:02;;;;;;;79.47;44.20;;;;;;;1.55;85.94;96489.48;1760167;81;20994;-70
2022/11/26 08:16:29;;;;;;;78.87;44.37;;;;;;;1.54;84.95;96489.91;1787630;80;21010;-70
2022/11/26 08:18:59;;;;;;;93.53;52.17;;;;;;;1.51;84.65;96497.59;1760052;81;21049;-70
2022/11/26 08:21:26;;;;;;;70.03;41.93;;;;;;;1.55;85.13;96498.17;1787552;80;21050;-70
2022/11/26 08:23:53;;;;;;;75.30;43.37;;;;;;;1.61;85.25;96497.04;1760249;81;21017;-69
2022/11/26 08:26:21;;;;;;;72.17;44.03;;;;;;;1.60;85.00;96490.09;1787788;80;21015;-69
2022/11/26 08:28:48;;;;;;;59.70;38.37;;;;;;;1.60;85.24;96491.38;1760010;81;21047;-69
2022/11/26 08:31:16;;;;;;;52.07;33.53;;;;;;;1.64;85.51;96494.98;1787712;80;21106;-69
2022/11/26 08:33:44;;;;;;;54.63;31.50;;;;;;;1.71;85.57;96496.91;1759996;81;20987;-69
2022/11/26 08:36:12;;;;;;;47.80;29.67;;;;;;;1.79;85.54;96501.94;1787500;80;21069;-69
2022/11/26 08:38:39;;;;;;;41.37;26.40;;;;;;;1.83;84.85;96502.48;1759781;81;21050;-69
2022/11/26 08:41:12;;;;;;;37.87;23.57;;;;;;;1.79;84.38;96499.34;1787523;80;21018;-69
2022/11/26 08:43:39;;;;;;;38.48;23.75;;;;;;;1.84;84.70;96504.26;1760188;81;20979;-69
2022/11/26 08:46:06;;;;;;;32.43;19.93;;;;;;;1.94;85.27;96504.99;1787632;80;21050;-69
2022/11/26 08:48:33;;;;;;;22.23;14.90;;;;;;;2.07;85.43;96510.13;1756464;82;21072;-69
2022/11/26 08:51:04;;;;;;;22.70;14.60;;;;;;;2.15;83.85;96520.34;1760158;81;20967;-70
2022/11/26 08:53:33;;;;;;;21.37;15.40;;;;;;;2.24;84.01;96520.13;1787604;80;21104;-69
2022/11/26 08:56:06;;;;;;;31.23;20.90;;;;;;;2.32;83.78;96516.05;1760012;81;20991;-69
2022/11/26 08:58:38;;;;;;;29.77;19.20;;;;;;;2.42;84.23;96519.77;1787575;80;21065;-69
2022/11/26 09:01:13;;;;;;;28.50;19.95;;;;;;;2.46;83.31;96522.50;1760225;81;21465;-70
2022/11/26 09:03:40;;;;;;;39.37;25.17;;;;;;;2.43;83.42;96530.23;1787448;80;21018;-70
2022/11/26 09:06:08;;;;;;;36.50;25.07;;;;;;;2.44;83.68;96522.88;1760127;81;21002;-70
2022/11/26 09:09:11;;;;;;;63.03;39.80;;;;;;;2.42;83.51;96525.87;1787876;80;21133;-70
2022/11/26 09:11:05;;;;;;;90.23;50.10;;;;;;;2.35;83.35;96525.24;1755687;81;21429;-70
2022/11/26 09:13:32;;;;;;;70.80;39.17;;;;;;;2.34;84.03;96522.16;1787750;80;21030;-70
2022/11/26 09:15:58;;;;;;;59.60;34.10;;;;;;;2.28;84.35;96523.30;1738494;82;20985;-70
2022/11/26 09:18:25;;;;;;;47.33;28.67;;;;;;;2.29;84.57;96526.34;1760078;81;21490;-70
2022/11/26 09:20:51;;;;;;;45.37;28.23;;;;;;;2.32;84.71;96523.86;1787667;80;21037;-70
2022/11/26 09:23:18;;;;;;;43.10;28.77;;;;;;;2.36;84.78;96529.17;1759988;81;20999;-70
2022/11/26 09:25:44;;;;;;;44.73;28.47;;;;;;;2.37;84.35;96529.66;1787767;80;21003;-70
2022/11/26 09:28:11;;;;;;;45.60;31.20;;;;;;;2.41;84.67;96533.21;1760192;81;21587;-70
2022/11/26 09:30:37;;;;;;;48.80;30.20;;;;;;;2.50;84.83;96530.88;1787704;80;21006;-70
2022/11/26 09:33:04;;;;;;;48.97;29.43;;;;;;;2.56;84.89;96535.36;1759775;81;20992;-70
2022/11/26 09:35:31;;;;;;;66.13;40.83;;;;;;;2.60;84.49;96533.31;1787781;80;20987;-70
2022/11/26 09:37:57;;;;;;;71.90;44.30;;;;;;;2.58;84.22;96532.38;1760108;81;21592;-70
2022/11/26 09:40:29;;;;;;;73.50;44.87;;;;;;;2.57;84.22;96530.20;1787691;80;21034;-70
2022/11/26 09:43:13;;;;;;;77.23;47.43;;;;;;;2.64;84.31;96531.66;1759242;81;20992;-70
2022/11/26 09:45:48;;;;;;;55.53;33.27;;;;;;;2.67;84.22;96529.12;1724050;80;21078;-70
2022/11/26 09:48:20;;;;;;;78.33;43.70;;;;;;;2.66;83.57;96528.25;1759805;81;20963;-70
2022/11/26 09:50:50;;;;;;;76.17;41.23;;;;;;;2.66;83.30;96529.56;1786044;80;21018;-70
2022/11/26 09:53:21;;;;;;;51.23;31.80;;;;;;;2.66;83.16;96529.56;1760356;81;21014;-70
2022/11/26 09:55:51;;;;;;;47.53;27.53;;;;;;;2.68;83.12;96534.39;1787090;80;21030;-69
2022/11/26 09:58:41;;;;;;;42.47;23.53;;;;;;;2.70;82.97;96537.94;1760125;81;21043;-69
2022/11/26 10:01:13;;;;;;;24.50;14.73;;;;;;;2.72;82.88;96528.44;1787913;80;21500;-69
2022/11/26 10:03:41;;;;;;;29.67;18.73;;;;;;;2.72;82.56;96534.05;1760058;81;21493;-69
2022/11/26 10:06:46;;;;;;;34.53;18.90;;;;;;;2.78;82.74;96537.70;1787656;80;21045;-69
2022/11/26 10:09:44;;;;;;;34.13;20.30;;;;;;;2.85;82.78;96532.64;1760372;81;21027;-69
2022/11/26 10:12:45;;;;;;;32.20;20.17;;;;;;;2.98;82.84;96541.27;1787216;80;21869;-69
2022/11/26 10:15:29;;;;;;;27.17;16.87;;;;;;;3.04;82.77;96542.72;1760294;81;21490;-69
2022/11/26 10:18:31;;;;;;;21.10;14.03;;;;;;;3.11;82.17;96547.67;1787610;80;21035;-69
2022/11/26 10:21:18;;;;;;;20.63;13.40;;;;;;;3.16;82.12;96543.46;1759681;81;21469;-69
2022/11/26 10:24:04;;;;;;;15.50;10.23;;;;;;;3.26;82.42;96536.33;1787923;80;21014;-70
2022/11/26 10:26:34;;;;;;;20.87;13.37;;;;;;;3.32;81.33;96540.37;1760095;81;21033;-69
2022/11/26 10:29:28;;;;;;;18.13;12.47;;;;;;;3.41;81.89;96538.00;1787921;80;20970;-69
2022/11/26 10:31:59;;;;;;;24.77;15.65;;;;;;;3.46;81.48;96525.95;1759288;81;21531;-70
2022/11/26 10:34:50;;;;;;;18.50;12.73;;;;;;;3.47;80.83;96534.22;1787646;80;21500;-70
2022/11/26 10:37:20;;;;;;;19.93;13.63;;;;;;;3.48;80.77;96533.82;1760304;81;21532;-70
2022/11/26 10:39:47;;;;;;;17.80;10.93;;;;;;;3.48;80.09;96539.04;1787622;80;21504;-70
2022/11/26 10:42:20;;;;;;;13.37;9.40;;;;;;;3.45;79.31;96535.02;1760106;81;21536;-70
2022/11/26 10:44:51;;;;;;;17.60;10.80;;;;;;;3.46;79.81;96531.59;1787827;80;21122;-70
2022/11/26 10:47:30;;;;;;;17.50;10.90;;;;;;;3.44;79.61;96537.19;1760204;81;21476;-70
2022/11/26 10:50:08;;;;;;;18.17;11.30;;;;;;;3.43;79.36;96538.05;1787603;80;21592;-70
2022/11/26 10:52:37;;;;;;;18.20;11.07;;;;;;;3.42;78.99;96541.48;1755207;82;21492;-70
2022/11/26 10:55:26;;;;;;;18.37;12.17;;;;;;;3.38;79.17;96540.54;1760051;81;20987;-70
2022/11/26 10:58:04;;;;;;;19.13;11.30;;;;;;;3.37;79.31;96533.97;1787909;80;21531;-70
2022/11/26 11:00:35;;;;;;;16.17;9.70;;;;;;;3.35;79.21;96532.65;1758522;81;21465;-70
2022/11/26 11:03:07;;;;;;;18.03;11.23;;;;;;;3.31;78.69;96528.19;1787633;80;21045;-70
2022/11/26 11:05:34;;;;;;;16.57;11.23;;;;;;;3.28;78.70;96522.91;1758741;81;21042;-70
2022/11/26 11:08:01;;;;;;;16.73;10.63;;;;;;;3.31;78.71;96526.88;1787804;80;20994;-70
2022/11/26 11:10:28;;;;;;;32.37;18.23;;;;;;;3.32;78.88;96527.76;1760108;81;21054;-70
2022/11/26 11:13:11;;;;;;;25.00;14.97;;;;;;;3.35;79.12;96533.05;1787783;80;21006;-70
2022/11/26 11:15:39;;;;;;;18.82;12.45;;;;;;;3.35;78.78;96534.34;1760196;81;21545;-70
2022/11/26 11:18:19;;;;;;;20.33;12.97;;;;;;;3.35;78.96;96529.13;1787789;80;20978;-70
2022/11/26 11:20:56;;;;;;;21.03;13.57;;;;;;;3.39;79.17;96527.94;1759656;81;21046;-70
2022/11/26 11:23:26;;;;;;;24.47;16.13;;;;;;;3.42;79.37;96521.91;1786902;80;21670;-70
2022/11/26 11:26:01;;;;;;;23.60;15.60;;;;;;;3.45;79.71;96524.20;1760260;81;21493;-69
2022/11/26 11:28:31;;;;;;;25.67;14.67;;;;;;;3.52;79.79;96519.11;1787960;80;21544;-69
2022/11/26 11:31:15;;;;;;;31.73;15.73;;;;;;;3.53;79.24;96520.86;1760045;81;20963;-69
2022/11/26 11:33:42;;;;;;;20.40;12.50;;;;;;;3.53;79.32;96521.77;1787771;80;21141;-70
2022/11/26 11:36:17;;;;;;;26.67;15.33;;;;;;;3.56;79.40;96527.05;1760217;81;21034;-70
2022/11/26 11:38:55;;;;;;;21.03;12.90;;;;;;;3.58;79.26;96525.77;1787521;80;21504;-71